Skip Navigation LinksHome page > Weather > Current weather Skip Navigation Links

Current Weather

Montgomery Field, San Diego

For information only: do not use for flight planning or navigation.
Latest weather
Observation time Monday, January 24, 2022 8:53 PM PST
Local time Monday, January 24, 2022 9:11 PM PST
Flight conditions Visual Meteorological Conditions
Winds
Wind speed calm
Visibility 10 mi.
Sky condition
Ceiling unlimited
Sky clear
Temperature 54°F
Dewpoint 48°F
Altimeter 30.04 in.Hg
Derived measurements
Relative humidity 80%
Density altitude 120 ft.
Sea-level pressure 30.03 in.Hg
Remarks
Automated weather observing station with precipitation discriminator.
METAR KMYF 250453Z 00000KT 10SM CLR 12/09 A3004 RMK AO2 SLP170 T01220089

Settings

Location code

InnerDrive.Weather 4.0.6770.0 Release CLR 4.0.30319.42000
Copyright ©2018 Inner Drive Technology. All rights reserved. Portions Copyright ©1986-2018 David Braverman.

Find weather

Site navigation


Skip Navigation Links

Place info

Page info

PayPal - The safer, easier way to pay online!

Return home.

Copyright ©2022 Inner Drive Technology. Purveyors of fine, hand-crafted computer software. Page printed 2022-01-25T05:11:29 UTC.